Here is the Quick Look data you requested

The Data originates at the National Weather Service, and is made available here by the UAlbany Department of Atmospheric and Environmental Sciences

Surface Observations

KSBY 240354Z AUTO 00000KT 9SM CLR 21/21 A2991 RMK AO2 SLP130 T02110206=
KSBY 240454Z AUTO 00000KT 10SM CLR 21/20 A2990 RMK AO2 SLP126 T02060200
 402940183=
KSBY 240554Z AUTO 00000KT 8SM CLR 19/19 A2988 RMK AO2 SLP121 T01940189 10244
 20194 58008=
KSBY 240654Z AUTO 11003KT 10SM CLR 19/18 A2987 RMK AO2 SLP116 T01890183=
KSBY 240754Z AUTO 10003KT 8SM CLR 18/18 A2986 RMK AO2 SLP114 T01830178=
KSBY 240854Z AUTO 00000KT 7SM CLR 18/18 A2986 RMK AO2 SLP112 T01830178 56009=
KSBY 240954Z 00000KT 9SM FEW100 18/18 A2987 RMK AO2 SLP115 T01830178=
KSBY 241054Z 00000KT 6SM BR FEW095 19/19 A2987 RMK AO2 SLP118 T01940194=
KSBY 241154Z 18003KT 10SM FEW055 22/21 A2987 RMK AO2 SLP118 T02170206 10217
 20178 51006=
KSBY 241254Z 01007KT 9SM SCT013 SCT050 BKN080 22/20 A2988 RMK AO2 SLP121
 T02220200=
KSBY 241305Z 35004KT 8SM BKN013 BKN050 BKN080 23/20 A2989 RMK AO2 T02280200=
KSBY 241317Z 02005KT 10SM BKN016 BKN080 23/19 A2989 RMK AO2 T02280194=
KSBY 241342Z 04005KT 10SM SCT019 SCT043 23/19 A2989 RMK AO2 T02330189=
KSBY 241354Z 01006KT 10SM SCT045 BKN055 23/19 A2989 RMK AO2 SLP124 T02330189=
KSBY 241454Z 07009KT 10SM CLR 24/18 A2989 RMK AO2 SLP123 T02390183 50004=
KSBY 241554Z 08007KT 10SM SCT034 SCT047 25/18 A2988 RMK AO2 LTG DSNT N SLP121
 T02500178=
KSBY 241654Z 11005KT 10SM OVC040 25/18 A2988 RMK AO2 SLP119 T02500178=
KSBY 241754Z VRB04KT 10SM FEW050 SCT080 26/18 A2985 RMK AO2 SLP111 T02610183
 10267 20222 58012=
KSBY 241854Z 16006KT 10SM SCT035 BKN050 25/19 A2985 RMK AO2 SLP111 T02500189=
KSBY 241954Z 15005KT 10SM BKN110 25/19 A2984 RMK AO2 SLP106 T02500194=
KSBY 242054Z 16006KT 10SM BKN100 26/21 A2984 RMK AO2 SLP105 T02560206 58006=
KSBY 242154Z 00000KT 10SM CLR 25/20 A2984 RMK AO2 SLP105 T02500200=
KSBY 242254Z 15005KT 10SM OVC110 24/21 A2984 RMK AO2 SLP108 T02440206=
KSBY 242354Z 10003KT 10SM CLR 23/20 A2983 RMK AO2 SLP103 T02280200 10267 20228
 58003=
KSBY 250054Z 15003KT 10SM CLR 22/20 A2985 RMK AO2 SLP108 T02170200=
KSBY 250154Z 15003KT 10SM CLR 20/19 A2987 RMK AO2 LTG DSNT N AND NW SLP116
 T02000194=
KSBY 250247Z AUTO 00000KT 10SM BKN020 19/19 A2988 RMK AO2 LTG DSNT W-N
 T01940189=
KSBY 250254Z AUTO 00000KT 9SM BKN020 19/19 A2988 RMK AO2 LTG DSNT SW-N SLP119
 T01940189 51016=
KSBY 250315Z AUTO 00000KT 7SM SCT019 19/19 A2988 RMK AO2 LTG DSNT SW-N
 T01940189=
KSBY 250354Z AUTO 00000KT 7SM CLR 18/18 A2987 RMK AO2 LTG DSNT ALQDS SLP118
 T01830183=
KSBY 250417Z AUTO 00000KT 1 3/4SM BR CLR 18/18 A2987 RMK AO2 LTG DSNT ALQDS
 T01830183=
KSBY 250429Z AUTO 00000KT 4SM BR CLR 18/18 A2987 RMK AO2 LTG DSNT SW-N
 T01830178=
KSBY 250454Z AUTO 00000KT 8SM CLR 18/18 A2986 RMK AO2 LTG DSNT W-NE SLP115
 T01780178 402670178=
KSBY 250521Z AUTO 00000KT 1 1/2SM VCTS BR CLR 18/18 A2987 RMK AO2 LTG DSNT
 ALQDS T01780178=
KSBY 250529Z AUTO 00000KT 1SM TS BR CLR 18/18 A2987 RMK AO2 VIS 1/2V3 LTG DSNT
 SW-N TSB23 T01780178=
KSBY 250545Z AUTO 00000KT 3/4SM TS BR CLR 18/18 A2987 RMK AO2 LTG DSNT SW TSB23
 T01780178=
KSBY 250549Z AUTO 00000KT 2 1/2SM TS BR CLR 18/18 A2986 RMK AO2 LTG DSNT S AND
 SW TSB23=
KSBY 250554Z AUTO 00000KT 1 1/4SM TS BR CLR 18/17 A2986 RMK AO2 LTG DSNT NE AND
 S AND SW TSB23 SLP113 T01780172 10228 20178 56006=
KSBY 250603Z AUTO 00000KT 1SM TS BR VV003 18/17 A2986 RMK AO2 LTG DSNT NE AND S
 AND SW T01780172=
KSBY 250610Z AUTO 00000KT 1/4SM TS FG VV003 18/17 A2985 RMK AO2 LTG DSNT NE AND
 S AND SW T01780172=
KSBY 250622Z AUTO 00000KT 1/2SM VCTS FG VV003 18/18 A2984 RMK AO2 LTG DSNT
 ALQDS TSE20 T01830183=
KSBY 250635Z AUTO 00000KT 1/2SM FG VV002 18/18 A2984 RMK AO2 LTG DSNT E-SW
 TSE20 T01780178=
KSBY 250642Z AUTO 00000KT 1/4SM FG VV002 17/17 A2985 RMK AO2 LTG DSNT E-SW
 TSE20 T01670167=
KSBY 250646Z AUTO 00000KT 1/2SM FG VV001 17/17 A2985 RMK AO2 LTG DSNT SE AND SW
 TSE20 T01670167=
KSBY 250650Z AUTO 00000KT 1/4SM FG VV002 17/17 A2985 RMK AO2 LTG DSNT S AND SW
 TSE20=
KSBY 250654Z AUTO 00000KT 1/4SM FG VV002 17/17 A2985 RMK AO2 LTG DSNT S AND SW
 TSE20 SLP109 T01670167=
KSBY 250723Z AUTO 00000KT 1/2SM FG VV002 16/16 A2985 RMK AO2 LTG DSNT S
 T01610161=
KSBY 250732Z AUTO 00000KT 1/2SM FG VV001 16/16 A2986 RMK AO2 LTG DSNT S
 T01610161=
KSBY 250745Z AUTO 00000KT 1/4SM FG VV002 16/16 A2985 RMK AO2 LTG DSNT SW
 T01560156=
KSBY 250754Z AUTO 10003KT 1/4SM FG VV002 16/16 A2985 RMK AO2 SLP111 T01560156=
KSBY 250817Z AUTO 00000KT 1/4SM FG VV001 16/16 A2986 RMK AO2 T01560156=
KSBY 250854Z AUTO 00000KT 1/4SM FG VV001 16/16 A2985 RMK AO2 SLP109 T01560156
 56004=
KSBY 250915Z AUTO 00000KT 1/4SM FG VV002 16/16 A2985 RMK AO2 T01560156=
KSBY 250945Z AUTO 00000KT M1/4SM FG VV002 16/16 A2985 RMK AO2 T01560156=
KSBY 250954Z AUTO 00000KT 1/4SM FG VV002 16/16 A2985 RMK AO2 SLP111 T01560156=
KSBY 251003Z 00000KT 1/2SM FG VV002 16/16 A2986 RMK AO2 T01560156=
KSBY 251010Z 00000KT M1/4SM FG VV002 16/16 A2986 RMK AO2 T01560156=
KSBY 251021Z 00000KT 1/2SM FG VV002 16/16 A2986 RMK AO2 T01560156=